Time;durP1;ratioP1;P1;durP2;ratioP2;P2;SDS_P1;SDS_P2;PMS_P1;PMS_P2;Temp;Humidity;BMP_temperature;BMP_pressure;BME280_temperature;BME280_humidity;BME280_pressure;Samples;Min_cycle;Max_cycle;Signal;HPM_P1;HPM_P2
2022/10/22 00:00:12;;;;;;;8.37;8.07;;;15.40;50.60;;;;;;5085798;28;20688;-56
2022/10/22 00:02:38;;;;;;;7.80;7.60;;;15.40;50.80;;;;;;5084955;28;20195;-55
2022/10/22 00:05:04;;;;;;;7.80;7.50;;;15.20;50.60;;;;;;5087308;28;20421;-56
2022/10/22 00:07:31;;;;;;;7.83;7.53;;;15.20;52.00;;;;;;5084009;28;20630;-57
2022/10/22 00:09:56;;;;;;;7.23;7.03;;;15.20;52.20;;;;;;5084947;28;20444;-57
2022/10/22 00:12:22;;;;;;;7.70;7.30;;;15.20;52.00;;;;;;5085188;28;21038;-57
2022/10/22 00:14:48;;;;;;;7.53;7.20;;;15.20;53.00;;;;;;5085985;28;20190;-55
2022/10/22 00:17:14;;;;;;;6.87;6.67;;;15.30;53.10;;;;;;5084344;28;20511;-55
2022/10/22 00:19:40;;;;;;;7.17;6.87;;;15.20;52.40;;;;;;5086059;28;20540;-57
2022/10/22 00:22:07;;;;;;;7.13;6.93;;;15.10;53.20;;;;;;5086196;28;20193;-56
2022/10/22 00:24:34;;;;;;;6.83;6.63;;;15.00;53.60;;;;;;5083870;28;20183;-57
2022/10/22 00:27:01;;;;;;;7.13;6.93;;;15.10;53.40;;;;;;5086681;28;20739;-57
2022/10/22 00:29:26;;;;;;;6.70;6.50;;;15.00;53.40;;;;;;5084354;28;20424;-57
2022/10/22 00:31:52;;;;;;;7.20;7.00;;;15.00;53.60;;;;;;5085131;28;20416;-56
2022/10/22 00:34:20;;;;;;;6.90;6.60;;;15.10;54.00;;;;;;5084845;28;20206;-56
2022/10/22 00:36:46;;;;;;;7.07;6.87;;;15.00;53.80;;;;;;5082628;28;20258;-57
2022/10/22 00:39:15;;;;;;;7.20;6.90;;;14.90;54.20;;;;;;5083448;28;20423;-59
2022/10/22 00:41:41;;;;;;;7.27;7.07;;;14.90;54.50;;;;;;5085008;28;20420;-59
2022/10/22 00:44:07;;;;;;;7.40;7.07;;;14.80;54.10;;;;;;5083199;28;20429;-59
2022/10/22 00:46:33;;;;;;;7.03;6.83;;;14.80;55.00;;;;;;5085686;28;20432;-59
2022/10/22 00:49:01;;;;;;;6.43;6.23;;;14.80;55.10;;;;;;5081453;28;20178;-59
2022/10/22 00:51:31;;;;;;;6.70;6.40;;;14.70;55.20;;;;;;5084675;28;20229;-59
2022/10/22 00:54:04;;;;;;;6.60;6.40;;;14.70;55.50;;;;;;5081770;28;20783;-59
2022/10/22 00:56:30;;;;;;;6.97;6.67;;;14.70;55.50;;;;;;5084206;28;20521;-59
2022/10/22 00:58:59;;;;;;;7.30;6.80;;;14.70;55.50;;;;;;5084736;28;20425;-60
2022/10/22 01:01:28;;;;;;;6.97;6.57;;;14.60;55.40;;;;;;5083663;28;20505;-59
2022/10/22 01:03:54;;;;;;;6.73;6.43;;;14.70;55.60;;;;;;5083475;28;20562;-59
2022/10/22 01:06:31;;;;;;;6.33;6.13;;;14.70;55.60;;;;;;5085609;28;20507;-57
2022/10/22 01:09:26;;;;;;;7.30;6.90;;;14.70;56.10;;;;;;5088359;28;20781;-56
2022/10/22 01:12:11;;;;;;;6.60;6.40;;;14.70;55.50;;;;;;5081346;28;20461;-56
2022/10/22 01:14:58;;;;;;;7.20;6.80;;;14.70;55.50;;;;;;5082104;28;20416;-55
2022/10/22 01:17:52;;;;;;;6.73;6.43;;;14.70;55.50;;;;;;5082849;28;20409;-56
2022/10/22 01:20:30;;;;;;;6.43;6.23;;;14.70;56.60;;;;;;5077974;28;20473;-55
2022/10/22 01:23:07;;;;;;;6.57;6.33;;;14.60;57.00;;;;;;5083446;28;20416;-56
2022/10/22 01:25:36;;;;;;;6.23;5.97;;;14.60;57.10;;;;;;5082179;28;20499;-57
2022/10/22 01:28:31;;;;;;;7.13;6.80;;;14.60;57.70;;;;;;5081973;28;20561;-57
2022/10/22 01:30:59;;;;;;;6.07;5.87;;;14.50;57.80;;;;;;5083502;28;20440;-56
2022/10/22 01:33:26;;;;;;;6.27;6.07;;;14.50;57.80;;;;;;5083761;28;20780;-56
2022/10/22 01:35:52;;;;;;;5.73;5.53;;;14.40;57.70;;;;;;5080215;28;20923;-57
2022/10/22 01:38:22;;;;;;;5.77;5.57;;;14.40;58.30;;;;;;5082788;28;20416;-57
2022/10/22 01:40:49;;;;;;;6.67;5.93;;;14.40;59.00;;;;;;5082120;28;20412;-57
2022/10/22 01:43:15;;;;;;;5.80;5.60;;;14.40;59.40;;;;;;5082563;28;20412;-56
2022/10/22 01:45:50;;;;;;;6.03;5.73;;;14.40;58.80;;;;;;5084602;28;20413;-56
2022/10/22 01:48:34;;;;;;;5.70;5.50;;;14.40;58.90;;;;;;5086571;28;20513;-57
2022/10/22 01:51:24;;;;;;;5.90;5.60;;;14.40;59.00;;;;;;5080886;28;20424;-56
2022/10/22 01:53:58;;;;;;;5.90;5.70;;;14.30;59.30;;;;;;5083239;28;20492;-56
2022/10/22 01:56:36;;;;;;;5.73;5.53;;;14.40;59.50;;;;;;5081371;28;20443;-55
2022/10/22 01:59:40;;;;;;;5.90;5.60;;;14.30;59.00;;;;;;5082123;28;20470;-57
2022/10/22 02:02:12;;;;;;;5.60;5.40;;;14.40;59.00;;;;;;5083524;28;20942;-56
2022/10/22 02:04:48;;;;;;;5.23;5.10;;;14.40;58.80;;;;;;5080980;28;20415;-57
2022/10/22 02:07:20;;;;;;;5.90;5.70;;;14.40;59.20;;;;;;5080814;28;20440;-56
2022/10/22 02:10:02;;;;;;;5.80;5.50;;;14.40;58.50;;;;;;5080759;28;20413;-57
2022/10/22 02:12:31;;;;;;;5.97;5.67;;;14.50;58.70;;;;;;5082047;28;20593;-56
2022/10/22 02:14:57;;;;;;;6.30;6.10;;;14.60;57.80;;;;;;5080274;28;20428;-57
2022/10/22 02:17:27;;;;;;;6.73;6.47;;;14.60;57.10;;;;;;5079540;28;20511;-59
2022/10/22 02:20:00;;;;;;;6.07;5.87;;;14.70;55.50;;;;;;5080151;28;20498;-59
2022/10/22 02:22:26;;;;;;;7.40;7.00;;;14.80;55.70;;;;;;5079958;28;20858;-59
2022/10/22 02:24:52;;;;;;;6.93;6.63;;;14.90;55.70;;;;;;5079467;28;20968;-59
2022/10/22 02:27:24;;;;;;;6.60;6.40;;;15.10;55.90;;;;;;5082223;28;20421;-58
2022/10/22 02:30:16;;;;;;;7.67;7.37;;;15.20;54.40;;;;;;5081078;28;20447;-58
2022/10/22 02:32:51;;;;;;;7.50;7.30;;;15.20;53.30;;;;;;5080598;28;20456;-59
2022/10/22 02:35:21;;;;;;;7.60;7.23;;;15.20;53.20;;;;;;5063636;28;20982;-58
2022/10/22 02:37:48;;;;;;;7.70;7.40;;;15.30;52.90;;;;;;5080924;28;20423;-59
2022/10/22 02:40:15;;;;;;;7.50;7.30;;;15.20;53.00;;;;;;5081094;28;20489;-59
2022/10/22 02:42:41;;;;;;;8.50;8.10;;;15.20;53.00;;;;;;5081814;28;20420;-57
2022/10/22 02:45:08;;;;;;;9.13;8.50;;;15.20;53.20;;;;;;5082174;28;20444;-56
2022/10/22 02:47:33;;;;;;;7.63;7.43;;;15.20;53.40;;;;;;5080478;28;20424;-56
2022/10/22 02:49:59;;;;;;;7.37;7.17;;;15.40;54.00;;;;;;5082649;28;20428;-58
2022/10/22 02:52:25;;;;;;;7.70;7.50;;;15.40;54.10;;;;;;5066107;28;20232;-58
2022/10/22 02:54:51;;;;;;;7.77;7.57;;;15.50;53.40;;;;;;5079663;28;20179;-58
2022/10/22 02:57:16;;;;;;;7.90;7.70;;;15.50;53.10;;;;;;5080565;28;20421;-58
2022/10/22 02:59:42;;;;;;;8.03;7.77;;;15.50;52.70;;;;;;5081752;28;20178;-59
2022/10/22 03:02:07;;;;;;;8.63;8.43;;;15.50;50.20;;;;;;5079766;28;20658;-58
2022/10/22 03:04:34;;;;;;;9.10;8.60;;;15.40;51.00;;;;;;5080557;28;20608;-58
2022/10/22 03:07:00;;;;;;;8.90;8.70;;;15.30;50.60;;;;;;5083058;28;20210;-58
2022/10/22 03:09:25;;;;;;;9.37;9.07;;;15.20;51.20;;;;;;5081216;28;20452;-58
2022/10/22 03:11:51;;;;;;;8.70;8.40;;;15.20;52.20;;;;;;5080340;28;20175;-58
2022/10/22 03:14:17;;;;;;;9.40;9.00;;;15.20;51.90;;;;;;5081132;28;20220;-58
2022/10/22 03:16:43;;;;;;;9.27;8.90;;;15.10;51.90;;;;;;5081754;28;20416;-58
2022/10/22 03:19:08;;;;;;;8.40;8.20;;;15.10;51.30;;;;;;5087995;28;20269;-58
2022/10/22 03:21:47;;;;;;;9.10;8.47;;;15.10;51.60;;;;;;5086968;28;20178;-58
2022/10/22 03:24:27;;;;;;;8.60;8.40;;;15.10;52.50;;;;;;5088340;28;20190;-58
2022/10/22 03:26:53;;;;;;;8.70;8.40;;;15.20;51.50;;;;;;5088963;28;20416;-58
2022/10/22 03:29:21;;;;;;;8.50;8.30;;;15.30;51.70;;;;;;5090241;28;20520;-58
2022/10/22 03:31:47;;;;;;;8.30;8.10;;;15.30;51.10;;;;;;5088508;28;20190;-58
2022/10/22 03:34:13;;;;;;;8.47;8.27;;;15.40;50.80;;;;;;5090385;28;20460;-58
2022/10/22 03:36:40;;;;;;;9.27;8.60;;;15.30;50.40;;;;;;5088268;28;20185;-58
2022/10/22 03:39:06;;;;;;;7.87;7.67;;;15.30;51.10;;;;;;5091002;28;20504;-58
2022/10/22 03:41:32;;;;;;;8.53;8.13;;;15.30;51.20;;;;;;5090841;28;20512;-58
2022/10/22 03:44:00;;;;;;;8.77;8.37;;;15.30;51.70;;;;;;5089939;28;20928;-58
2022/10/22 03:46:26;;;;;;;8.07;7.87;;;15.40;52.10;;;;;;5090474;28;20420;-58
2022/10/22 03:48:51;;;;;;;8.20;8.00;;;15.40;51.70;;;;;;5090492;28;20424;-58
2022/10/22 03:51:17;;;;;;;8.23;7.93;;;15.50;52.20;;;;;;5092140;28;20332;-58
2022/10/22 03:53:42;;;;;;;9.00;8.50;;;15.50;51.80;;;;;;5091799;28;20236;-58
2022/10/22 03:56:09;;;;;;;8.53;8.33;;;15.40;51.30;;;;;;5091025;28;20227;-58
2022/10/22 03:58:36;;;;;;;9.17;8.83;;;15.30;52.00;;;;;;5093460;28;20263;-58
2022/10/22 04:01:07;;;;;;;8.40;8.10;;;15.10;52.50;;;;;;5090283;28;20405;-59
2022/10/22 04:03:33;;;;;;;7.93;7.73;;;15.10;53.50;;;;;;5090275;28;20507;-57
2022/10/22 04:06:08;;;;;;;8.33;8.03;;;15.10;53.40;;;;;;5091658;28;20416;-56
2022/10/22 04:08:35;;;;;;;8.80;8.40;;;15.20;53.60;;;;;;5091153;28;20412;-56
2022/10/22 04:11:01;;;;;;;8.33;8.03;;;15.20;52.70;;;;;;5093152;28;20775;-56
2022/10/22 04:13:27;;;;;;;8.20;8.00;;;15.30;52.70;;;;;;5092024;28;21042;-55
2022/10/22 04:15:52;;;;;;;8.50;8.10;;;15.40;51.80;;;;;;5092250;28;20412;-57
2022/10/22 04:18:19;;;;;;;8.80;8.50;;;15.40;52.00;;;;;;5092732;28;20174;-56
2022/10/22 04:20:45;;;;;;;9.00;8.50;;;15.50;51.30;;;;;;5091369;28;20281;-57
2022/10/22 04:23:11;;;;;;;8.17;7.93;;;15.60;50.80;;;;;;5091690;28;20436;-56
2022/10/22 04:25:37;;;;;;;8.60;8.40;;;15.70;50.80;;;;;;5092884;28;20511;-56
2022/10/22 04:28:07;;;;;;;8.40;8.20;;;15.70;50.70;;;;;;5092118;28;20448;-59
2022/10/22 04:30:33;;;;;;;9.30;8.90;;;15.70;50.50;;;;;;5091794;28;20972;-58
2022/10/22 04:32:58;;;;;;;8.73;8.40;;;15.70;49.70;;;;;;5091112;28;20544;-59
2022/10/22 04:35:24;;;;;;;8.80;8.50;;;15.70;49.50;;;;;;5092061;28;20847;-58
2022/10/22 04:37:50;;;;;;;8.47;8.17;;;15.70;50.10;;;;;;5091114;28;20175;-58
2022/10/22 04:40:16;;;;;;;9.00;8.80;;;15.60;49.40;;;;;;5091067;28;20174;-59
2022/10/22 04:42:41;;;;;;;8.67;8.47;;;15.50;48.80;;;;;;5091819;28;20424;-59
2022/10/22 04:45:07;;;;;;;9.40;8.40;;;15.30;48.90;;;;;;5089824;28;20178;-55
2022/10/22 04:47:33;;;;;;;8.40;8.20;;;15.20;49.70;;;;;;5092279;28;20183;-53
2022/10/22 04:49:59;;;;;;;8.53;8.20;;;15.10;50.30;;;;;;5090959;28;20417;-56
2022/10/22 04:52:24;;;;;;;8.33;8.07;;;15.00;50.50;;;;;;5091347;28;20202;-56
2022/10/22 04:54:50;;;;;;;7.93;7.70;;;15.00;51.30;;;;;;5092369;28;20179;-56
2022/10/22 04:57:15;;;;;;;8.50;8.20;;;14.90;51.60;;;;;;5075347;28;20522;-55
2022/10/22 04:59:41;;;;;;;7.53;7.33;;;14.80;52.30;;;;;;5091274;28;20178;-55
2022/10/22 05:02:06;;;;;;;8.20;7.90;;;14.80;52.10;;;;;;5091690;28;20179;-56
2022/10/22 05:04:32;;;;;;;8.40;7.97;;;14.80;53.20;;;;;;5090728;28;20595;-56
2022/10/22 05:06:58;;;;;;;8.20;7.90;;;14.80;52.20;;;;;;5091855;28;20255;-55
2022/10/22 05:09:23;;;;;;;7.83;7.53;;;14.70;52.10;;;;;;5075146;28;20178;-56
2022/10/22 05:11:51;;;;;;;8.30;8.00;;;14.70;52.20;;;;;;5090040;28;20179;-55
2022/10/22 05:14:20;;;;;;;7.40;7.20;;;14.70;52.40;;;;;;5092691;28;20698;-57
2022/10/22 05:16:46;;;;;;;8.07;7.67;;;14.70;52.40;;;;;;5091718;28;20520;-55
2022/10/22 05:19:17;;;;;;;7.00;6.80;;;14.70;52.50;;;;;;5089888;28;20409;-56
2022/10/22 05:21:43;;;;;;;6.73;6.40;;;14.70;52.20;;;;;;5088987;28;20503;-54
2022/10/22 05:24:09;;;;;;;7.90;7.60;;;14.70;52.90;;;;;;5090607;28;20945;-54
2022/10/22 05:26:34;;;;;;;7.63;7.30;;;14.80;52.80;;;;;;5088907;28;20417;-55
2022/10/22 05:29:00;;;;;;;7.10;6.90;;;14.80;52.00;;;;;;5090021;28;20178;-56
2022/10/22 05:31:27;;;;;;;7.77;7.37;;;14.90;51.80;;;;;;5088347;28;20201;-53
2022/10/22 05:33:53;;;;;;;7.33;7.00;;;14.90;52.20;;;;;;5089441;28;20269;-55
2022/10/22 05:36:21;;;;;;;7.07;6.77;;;14.90;52.40;;;;;;5089671;28;20409;-57
2022/10/22 05:38:47;;;;;;;7.03;6.83;;;14.90;52.40;;;;;;5087354;28;20421;-57
2022/10/22 05:41:18;;;;;;;7.63;7.23;;;15.00;52.20;;;;;;5086445;28;20416;-58
2022/10/22 05:43:45;;;;;;;6.97;6.77;;;15.00;51.80;;;;;;5080466;28;20503;-57
2022/10/22 05:46:13;;;;;;;7.83;7.57;;;15.00;52.40;;;;;;5086173;28;20428;-58
2022/10/22 05:48:39;;;;;;;7.60;7.30;;;15.00;52.20;;;;;;5085603;28;20512;-58
2022/10/22 05:51:12;;;;;;;7.67;7.27;;;14.90;52.20;;;;;;5089308;28;20453;-57
2022/10/22 05:53:40;;;;;;;8.17;7.87;;;14.80;52.40;;;;;;5090131;28;20456;-58
2022/10/22 05:56:14;;;;;;;7.90;7.60;;;14.80;52.50;;;;;;5090217;28;20416;-58
2022/10/22 05:58:41;;;;;;;7.63;7.33;;;14.70;52.60;;;;;;5084542;28;20946;-58
2022/10/22 06:01:14;;;;;;;8.07;7.83;;;14.70;52.80;;;;;;5085364;28;20405;-58
2022/10/22 06:03:40;;;;;;;7.80;7.60;;;14.70;52.90;;;;;;5086303;28;20482;-58
2022/10/22 06:06:29;;;;;;;8.10;7.80;;;14.70;52.80;;;;;;5085825;28;20421;-58
2022/10/22 06:08:58;;;;;;;7.80;7.60;;;14.70;52.40;;;;;;5076249;28;20198;-59
2022/10/22 06:11:24;;;;;;;7.93;7.53;;;14.80;52.60;;;;;;5085178;28;20428;-58
2022/10/22 06:13:50;;;;;;;8.20;7.80;;;14.80;52.50;;;;;;5085070;28;20819;-58
2022/10/22 06:16:17;;;;;;;7.60;7.30;;;14.90;52.20;;;;;;5085320;28;20178;-58
2022/10/22 06:18:42;;;;;;;8.07;7.87;;;15.00;51.70;;;;;;5081787;28;20432;-57
2022/10/22 06:21:10;;;;;;;8.27;8.00;;;15.10;51.80;;;;;;5084654;28;20428;-57
2022/10/22 06:23:37;;;;;;;8.87;8.37;;;15.20;51.10;;;;;;5089844;28;20192;-57
2022/10/22 06:26:03;;;;;;;8.33;8.13;;;15.30;49.60;;;;;;5087507;28;20558;-57
2022/10/22 06:28:30;;;;;;;9.80;9.20;;;15.20;49.10;;;;;;5081349;28;20417;-57
2022/10/22 06:31:00;;;;;;;9.20;8.90;;;15.20;49.10;;;;;;5085339;28;20464;-57
2022/10/22 06:33:27;;;;;;;9.00;8.70;;;15.30;49.40;;;;;;5086224;28;20464;-58
2022/10/22 06:35:53;;;;;;;9.27;8.87;;;15.40;48.60;;;;;;5086043;28;20775;-58
2022/10/22 06:38:19;;;;;;;9.00;8.70;;;15.40;48.50;;;;;;5084910;28;20409;-57
2022/10/22 06:40:45;;;;;;;8.50;8.30;;;15.50;48.50;;;;;;5083808;28;20182;-57
2022/10/22 06:43:11;;;;;;;8.73;8.50;;;15.60;48.90;;;;;;5083780;28;20935;-58
2022/10/22 06:45:38;;;;;;;9.40;9.10;;;15.50;47.50;;;;;;5084053;28;20182;-58
2022/10/22 06:48:03;;;;;;;10.13;9.83;;;15.40;48.20;;;;;;5083740;28;20432;-58
2022/10/22 06:50:29;;;;;;;9.40;9.10;;;15.30;47.90;;;;;;5081600;28;20417;-58
2022/10/22 06:52:56;;;;;;;9.00;8.80;;;15.20;48.60;;;;;;5086264;28;20463;-58
2022/10/22 06:55:21;;;;;;;9.40;8.83;;;15.20;48.80;;;;;;5085599;28;20397;-58
2022/10/22 06:57:47;;;;;;;8.03;7.73;;;15.10;49.70;;;;;;5085711;28;20909;-59
2022/10/22 07:00:13;;;;;;;8.60;8.40;;;15.10;49.30;;;;;;5083483;28;20182;-59
2022/10/22 07:02:39;;;;;;;8.87;8.57;;;15.10;49.90;;;;;;5085494;28;20182;-59
2022/10/22 07:05:05;;;;;;;8.80;8.50;;;15.10;49.90;;;;;;5084824;28;20562;-59
2022/10/22 07:07:30;;;;;;;9.40;9.03;;;15.10;49.90;;;;;;5083248;28;20179;-59
2022/10/22 07:09:56;;;;;;;10.10;9.47;;;15.10;49.90;;;;;;5083217;28;20508;-59
2022/10/22 07:12:22;;;;;;;9.23;8.53;;;15.10;49.90;;;;;;5082417;28;20187;-58
2022/10/22 07:14:48;;;;;;;9.03;8.73;;;15.00;50.10;;;;;;5082502;28;20301;-58
2022/10/22 07:17:14;;;;;;;8.77;8.47;;;15.00;50.60;;;;;;5082562;28;20202;-58
2022/10/22 07:19:39;;;;;;;8.77;8.30;;;15.10;50.60;;;;;;5083822;28;20456;-58
2022/10/22 07:22:05;;;;;;;7.70;7.43;;;15.00;50.90;;;;;;5084791;28;20174;-58
2022/10/22 07:24:31;;;;;;;7.60;7.40;;;15.00;50.80;;;;;;5082258;28;20178;-59
2022/10/22 07:26:56;;;;;;;8.00;7.70;;;15.00;51.00;;;;;;5082214;28;20628;-58
2022/10/22 07:29:22;;;;;;;7.80;7.47;;;15.00;51.10;;;;;;5083122;28;20186;-57
2022/10/22 07:31:48;;;;;;;7.83;7.63;;;15.10;51.50;;;;;;5084457;28;20208;-57
2022/10/22 07:34:14;;;;;;;8.17;7.80;;;15.10;51.60;;;;;;5087226;28;21079;-58
2022/10/22 07:36:39;;;;;;;8.33;8.03;;;15.10;51.70;;;;;;5084628;28;20797;-58
2022/10/22 07:39:05;;;;;;;8.90;8.57;;;15.10;51.70;;;;;;5085677;28;20228;-58
2022/10/22 07:41:31;;;;;;;8.70;8.23;;;15.10;51.70;;;;;;5086681;28;20182;-58
2022/10/22 07:43:57;;;;;;;7.70;7.50;;;15.20;51.90;;;;;;5085357;28;20186;-58
2022/10/22 07:46:24;;;;;;;8.90;8.60;;;15.20;51.80;;;;;;5086197;28;20566;-59
2022/10/22 07:48:50;;;;;;;8.50;8.20;;;15.20;51.80;;;;;;5085263;28;20440;-59
2022/10/22 07:51:16;;;;;;;8.70;8.33;;;15.30;52.00;;;;;;5082551;28;20482;-60
2022/10/22 07:53:42;;;;;;;7.70;7.50;;;15.30;51.90;;;;;;5081950;28;20472;-59
2022/10/22 07:56:07;;;;;;;7.60;7.40;;;15.40;52.00;;;;;;5084009;28;20265;-59
2022/10/22 07:58:34;;;;;;;7.73;7.53;;;15.40;52.20;;;;;;5084484;28;20495;-59
2022/10/22 08:01:00;;;;;;;8.30;8.00;;;15.50;52.00;;;;;;5084381;28;20210;-59
2022/10/22 08:03:27;;;;;;;7.80;7.60;;;15.60;51.50;;;;;;5087692;28;20788;-59
2022/10/22 08:05:54;;;;;;;8.97;8.57;;;15.70;51.70;;;;;;5087864;28;20447;-60
2022/10/22 08:08:20;;;;;;;9.23;8.90;;;15.80;51.40;;;;;;5089233;28;20499;-60
2022/10/22 08:10:47;;;;;;;8.67;8.37;;;15.80;51.10;;;;;;5086580;28;20928;-59
2022/10/22 08:13:13;;;;;;;8.87;8.57;;;15.90;50.60;;;;;;5088489;28;20471;-59
2022/10/22 08:15:41;;;;;;;8.80;8.30;;;15.80;50.10;;;;;;5087143;28;20510;-60
2022/10/22 08:18:07;;;;;;;9.00;8.70;;;15.90;50.90;;;;;;5087021;28;20473;-59
2022/10/22 08:20:32;;;;;;;9.50;9.17;;;15.90;50.80;;;;;;5090810;28;20521;-60
2022/10/22 08:22:58;;;;;;;8.83;8.50;;;15.90;50.80;;;;;;5090796;28;20182;-59
2022/10/22 08:25:24;;;;;;;9.30;8.90;;;15.90;50.60;;;;;;5085870;28;20183;-60
2022/10/22 08:27:49;;;;;;;9.13;8.80;;;15.80;50.60;;;;;;5082738;28;20281;-59
2022/10/22 08:30:16;;;;;;;9.00;8.80;;;15.80;51.00;;;;;;5084561;28;20472;-59
2022/10/22 08:32:41;;;;;;;8.97;8.67;;;15.80;50.80;;;;;;5085874;28;20403;-59
2022/10/22 08:35:07;;;;;;;9.30;9.00;;;15.80;51.00;;;;;;5087859;28;20412;-59
2022/10/22 08:37:33;;;;;;;8.70;8.40;;;15.90;51.30;;;;;;5085921;28;20521;-59
2022/10/22 08:39:59;;;;;;;9.60;9.20;;;15.80;51.20;;;;;;5086295;28;20515;-59
2022/10/22 08:43:03;;;;;;;9.33;8.83;;;15.90;51.30;;;;;;5087504;28;20694;-59
2022/10/22 08:45:37;;;;;;;8.70;8.20;;;15.80;51.20;;;;;;5082832;28;20182;-58
2022/10/22 08:48:50;;;;;;;8.57;8.27;;;15.70;51.60;;;;;;5086323;28;20830;-59
2022/10/22 08:51:19;;;;;;;8.13;7.93;;;15.80;52.20;;;;;;5082325;28;20408;-59
2022/10/22 08:54:08;;;;;;;8.00;7.80;;;15.90;52.10;;;;;;5084153;28;20468;-58
2022/10/22 08:56:36;;;;;;;9.13;8.77;;;16.00;51.90;;;;;;5082673;28;20416;-58
2022/10/22 08:59:15;;;;;;;8.40;8.10;;;16.10;51.50;;;;;;5084759;28;20527;-59
2022/10/22 09:01:44;;;;;;;8.70;8.40;;;16.20;50.90;;;;;;5086063;28;20405;-59
2022/10/22 09:04:25;;;;;;;9.10;8.70;;;16.30;50.90;;;;;;5084198;28;20420;-59
2022/10/22 09:06:56;;;;;;;8.43;8.20;;;16.60;50.10;;;;;;5083725;28;20424;-59
2022/10/22 09:09:28;;;;;;;7.70;7.40;;;16.70;49.10;;;;;;5085382;28;20435;-59
2022/10/22 09:11:56;;;;;;;8.00;7.80;;;16.90;47.70;;;;;;5084527;28;20910;-59
2022/10/22 09:14:24;;;;;;;8.70;8.40;;;17.00;47.30;;;;;;5084008;28;20465;-58
2022/10/22 09:17:08;;;;;;;8.70;8.30;;;17.10;46.10;;;;;;5085842;28;20417;-59
2022/10/22 09:19:57;;;;;;;9.00;8.70;;;17.10;46.00;;;;;;5083321;28;20456;-59
2022/10/22 09:22:31;;;;;;;10.93;10.43;;;17.10;46.00;;;;;;5084537;28;20761;-59
2022/10/22 09:25:20;;;;;;;9.33;9.03;;;17.20;46.00;;;;;;5082955;28;20417;-58
2022/10/22 09:27:46;;;;;;;10.03;9.43;;;17.20;46.30;;;;;;5084560;28;20427;-58
2022/10/22 09:30:19;;;;;;;10.53;9.93;;;17.30;46.50;;;;;;5084188;28;20436;-60
2022/10/22 09:32:44;;;;;;;9.80;9.50;;;17.30;45.40;;;;;;5082360;28;20464;-60
2022/10/22 09:35:12;;;;;;;9.83;9.53;;;17.30;45.40;;;;;;5082603;28;20451;-60
2022/10/22 09:37:48;;;;;;;11.10;10.50;;;17.30;44.90;;;;;;5081573;28;20196;-60
2022/10/22 09:40:14;;;;;;;10.20;9.90;;;17.30;44.20;;;;;;5083547;28;20420;-60
2022/10/22 09:42:40;;;;;;;10.50;10.20;;;17.40;44.90;;;;;;5087795;28;20423;-60
2022/10/22 09:45:06;;;;;;;11.67;11.27;;;17.40;43.70;;;;;;5084673;28;21126;-60
2022/10/22 09:47:41;;;;;;;9.97;9.67;;;17.50;44.20;;;;;;5084388;28;20235;-60
2022/10/22 09:50:43;;;;;;;9.77;9.47;;;17.50;42.00;;;;;;5081001;28;20556;-60
2022/10/22 09:53:16;;;;;;;9.50;9.20;;;17.60;43.00;;;;;;5082988;28;20467;-60
2022/10/22 09:55:42;;;;;;;9.30;8.90;;;17.60;42.90;;;;;;5082617;28;20413;-60
2022/10/22 09:58:12;;;;;;;9.50;9.20;;;17.70;42.70;;;;;;5083803;28;20484;-60
2022/10/22 10:00:44;;;;;;;8.37;7.97;;;17.70;42.70;;;;;;5078630;28;20436;-60
2022/10/22 10:03:20;;;;;;;9.40;9.10;;;17.80;41.70;;;;;;5075081;28;20417;-60
2022/10/22 10:05:48;;;;;;;9.43;8.53;;;17.90;42.60;;;;;;5083890;28;20416;-59
2022/10/22 10:08:16;;;;;;;8.77;8.47;;;18.00;40.60;;;;;;5086321;28;20421;-59
2022/10/22 10:11:00;;;;;;;9.07;8.77;;;18.00;41.10;;;;;;5082581;28;20420;-59
2022/10/22 10:13:37;;;;;;;8.60;8.40;;;18.10;40.60;;;;;;5088397;28;20468;-59
2022/10/22 10:16:07;;;;;;;10.37;9.97;;;18.20;38.70;;;;;;5088520;28;20440;-59
2022/10/22 10:18:54;;;;;;;9.90;9.40;;;18.30;38.40;;;;;;5089501;28;20419;-59
2022/10/22 10:21:30;;;;;;;10.33;9.83;;;18.30;36.20;;;;;;5090601;28;20771;-59
2022/10/22 10:24:08;;;;;;;9.83;9.43;;;18.40;37.10;;;;;;5091068;28;20419;-58
2022/10/22 10:26:49;;;;;;;9.07;8.87;;;18.40;36.70;;;;;;5091854;28;20431;-57
2022/10/22 10:29:54;;;;;;;9.63;9.33;;;18.50;36.00;;;;;;5090775;28;20471;-56
2022/10/22 10:32:42;;;;;;;8.90;8.60;;;18.50;35.00;;;;;;5091132;28;20419;-57
2022/10/22 10:35:23;;;;;;;9.87;9.57;;;18.60;35.40;;;;;;5090465;28;20400;-59
2022/10/22 10:38:33;;;;;;;9.50;9.20;;;18.60;36.60;;;;;;5089924;28;20420;-59
2022/10/22 10:41:25;;;;;;;9.60;9.20;;;18.70;36.30;;;;;;5081716;28;20440;-59
2022/10/22 10:43:54;;;;;;;9.10;8.80;;;18.60;36.40;;;;;;5090394;28;20425;-58
2022/10/22 10:46:44;;;;;;;9.77;9.47;;;18.60;37.00;;;;;;5088804;28;20428;-58
2022/10/22 10:49:18;;;;;;;9.43;9.13;;;18.70;36.50;;;;;;5088824;28;20506;-58
2022/10/22 10:51:46;;;;;;;9.73;9.33;;;18.70;35.30;;;;;;5086547;28;20450;-58
2022/10/22 10:54:23;;;;;;;9.70;9.40;;;18.70;34.80;;;;;;5087263;28;20807;-58
2022/10/22 10:57:01;;;;;;;9.53;9.13;;;18.70;35.00;;;;;;5089127;28;20409;-59
2022/10/22 10:59:42;;;;;;;9.80;9.50;;;18.70;35.50;;;;;;5085663;28;20412;-59
2022/10/22 11:02:39;;;;;;;9.30;8.80;;;18.70;35.30;;;;;;5082712;28;20420;-59
2022/10/22 11:05:17;;;;;;;9.00;8.60;;;18.80;33.90;;;;;;5061743;28;20723;-59
2022/10/22 11:07:58;;;;;;;9.20;8.90;;;18.80;34.10;;;;;;5088416;28;20767;-59
2022/10/22 11:10:29;;;;;;;9.07;8.67;;;18.80;34.00;;;;;;5088985;28;20450;-59
2022/10/22 11:13:20;;;;;;;8.60;8.20;;;18.80;33.50;;;;;;5085700;28;20479;-59
2022/10/22 11:15:54;;;;;;;9.30;8.87;;;18.80;33.80;;;;;;5087063;28;20431;-58
2022/10/22 11:18:27;;;;;;;8.27;7.87;;;18.80;31.20;;;;;;5085365;28;20411;-58
2022/10/22 11:21:17;;;;;;;8.60;8.30;;;18.80;30.50;;;;;;5083160;28;20829;-59
2022/10/22 11:24:15;;;;;;;8.90;8.60;;;18.80;30.20;;;;;;5086618;28;20420;-59
2022/10/22 11:26:47;;;;;;;8.60;8.30;;;18.70;30.70;;;;;;5064734;28;20997;-59
2022/10/22 11:29:20;;;;;;;8.23;8.03;;;18.70;31.40;;;;;;5086647;28;20412;-57
2022/10/22 11:31:48;;;;;;;8.37;8.07;;;18.70;31.10;;;;;;5085618;28;20409;-58
2022/10/22 11:34:23;;;;;;;9.20;8.60;;;18.70;32.10;;;;;;5085699;28;20468;-58
2022/10/22 11:36:49;;;;;;;8.93;8.63;;;18.70;32.00;;;;;;5087371;28;20432;-59
2022/10/22 11:39:52;;;;;;;9.27;8.90;;;18.60;32.80;;;;;;5091002;28;20998;-59
2022/10/22 11:42:42;;;;;;;8.60;8.33;;;18.70;33.80;;;;;;5090501;28;20413;-58
2022/10/22 11:45:13;;;;;;;9.73;8.90;;;18.70;34.00;;;;;;5090311;28;20424;-59
2022/10/22 11:47:57;;;;;;;8.57;8.37;;;18.70;33.60;;;;;;5089834;28;20426;-59
2022/10/22 11:50:24;;;;;;;9.07;8.77;;;18.80;33.70;;;;;;5090220;28;20424;-59
2022/10/22 11:53:15;;;;;;;8.50;8.00;;;18.80;33.80;;;;;;5089549;28;21400;-59
2022/10/22 11:55:54;;;;;;;8.97;8.47;;;18.90;32.00;;;;;;5083991;28;20431;-59
2022/10/22 11:58:43;;;;;;;8.53;8.13;;;19.00;31.80;;;;;;5086015;28;20477;-59
2022/10/22 12:01:09;;;;;;;9.30;9.00;;;19.00;32.50;;;;;;5093135;28;20409;-58
2022/10/22 12:03:47;;;;;;;20.77;14.83;;;19.00;32.40;;;;;;5092975;28;20488;-58
2022/10/22 12:06:18;;;;;;;9.40;9.00;;;19.00;32.80;;;;;;5093408;28;20174;-58
2022/10/22 12:08:48;;;;;;;9.00;8.70;;;19.00;32.10;;;;;;5092871;28;20440;-58
2022/10/22 12:11:32;;;;;;;10.03;9.50;;;19.10;32.10;;;;;;5087471;28;20404;-58
2022/10/22 12:14:28;;;;;;;32.80;17.00;;;19.10;31.90;;;;;;5089884;28;20455;-58
2022/10/22 12:17:11;;;;;;;11.50;10.70;;;19.20;31.70;;;;;;5091654;28;20775;-58
2022/10/22 12:19:40;;;;;;;8.97;8.30;;;19.20;30.10;;;;;;5089305;28;20573;-58
2022/10/22 12:22:37;;;;;;;9.57;9.13;;;19.20;29.40;;;;;;5086811;28;20989;-59
2022/10/22 12:25:24;;;;;;;8.63;8.33;;;19.20;29.40;;;;;;5082901;28;20428;-53
2022/10/22 12:27:57;;;;;;;9.00;8.70;;;19.10;29.20;;;;;;5087447;28;20425;-57
2022/10/22 12:30:26;;;;;;;9.80;9.20;;;19.10;29.40;;;;;;5089634;28;20527;-57
2022/10/22 12:32:57;;;;;;;9.30;8.90;;;19.10;29.40;;;;;;5090594;28;20456;-57
2022/10/22 12:35:26;;;;;;;8.10;7.80;;;19.10;28.80;;;;;;5091525;28;20463;-57
2022/10/22 12:37:54;;;;;;;9.30;8.73;;;19.10;28.40;;;;;;5090448;28;20427;-58
2022/10/22 12:40:20;;;;;;;10.57;9.87;;;19.10;29.40;;;;;;5092708;28;20413;-56
2022/10/22 12:42:57;;;;;;;9.07;8.57;;;19.10;26.90;;;;;;5092856;28;20413;-56
2022/10/22 12:45:30;;;;;;;9.00;8.30;;;19.10;27.40;;;;;;5093170;28;20420;-57
2022/10/22 12:48:03;;;;;;;9.40;9.10;;;19.10;28.00;;;;;;5093153;28;20417;-56
2022/10/22 12:50:40;;;;;;;8.90;8.60;;;19.10;27.50;;;;;;5091431;28;20865;-57
2022/10/22 12:53:14;;;;;;;9.30;8.87;;;19.20;26.50;;;;;;5094494;28;20455;-57
2022/10/22 12:55:40;;;;;;;8.40;8.00;;;19.20;25.90;;;;;;5092342;28;20846;-57
2022/10/22 12:58:07;;;;;;;8.30;8.10;;;19.20;26.00;;;;;;5092944;28;20929;-57
2022/10/22 13:00:34;;;;;;;8.70;8.40;;;19.30;26.80;;;;;;5092319;28;20397;-58
2022/10/22 13:03:04;;;;;;;9.33;8.93;;;19.20;27.10;;;;;;5093024;28;20440;-57
2022/10/22 13:05:37;;;;;;;9.23;8.83;;;19.30;27.40;;;;;;5092812;28;20412;-57